XXXV MASOWY BIEG im. TOMASZA HOPFERA

XXXV MASOWY BIEG im. TOMASZA HOPFERA

M-ce Numer Nazwisko Imię Płeć M-ce M/K Kat. M-ce kat. M/K Miejscowość Klub DYSTANS Wynik Prędkość km/h x Tempo min/km x
1 943 BELGRAU SZYMON M 1 M 20-29 MIĘDZYRZECZ LEKS SP Z.OO 10km 0:34:35 17.35 [km/h] 10:28 [min/km]
2 904 TARAS DANIEL M 2 M 20-29 MALBORK 22BLT 10km 0:34:46 17.26 [km/h] 10:29 [min/km]
3 918 HRYCIUK ŁUKASZ M 3 M 30-39 DĘBNO 10km 0:35:47 16.77 [km/h] 10:35 [min/km]
4 940 RODEWALD MATEUSZ M 4 M 20-29 1 WRONKI 10km 0:36:09 16.60 [km/h] 10:37 [min/km]
5 913 SANIEWSKI DARIUSZ M 5 M 30-39 1 POLICE UKL ÓSEMKA POLICE 10km 0:36:22 16.50 [km/h] 10:38 [min/km]
6 919 PAWLISIAK PAWEŁ M 6 M 30-39 2 DĘBNO BBLPOLICE 10km 0:37:05 16.18 [km/h] 10:43 [min/km]
7 935 WASZCZUK TOMASZ M 7 M 30-39 3 SZCZECIN 10km 0:37:30 16.00 [km/h] 10:45 [min/km]
8 905 WOLF DARIUSZ M 8 M 30-39 4 MIĘDZYCHÓD 10km 0:37:34 15.97 [km/h] 10:45 [min/km]
9 920 ŚLESICKI SEWERYN M 9 M 40-49 1 DĘBNO 10km 0:37:35 15.96 [km/h] 10:46 [min/km]
10 906 CHAWAWKO TOMASZ M 10 M 40-49 2 DĘBNO 10km 0:39:11 15.31 [km/h] 10:55 [min/km]
11 954 MACIĄG KAROL M 11 M 20-29 2 LUBIKOWO SZYMANOWSKITEAM 10km 0:39:36 15.15 [km/h] 10:58 [min/km]
12 917 HANCZAREK DARIUSZ M 12 M 40-49 3 GORZÓW WIELKOPOLSKI START GORZÓW 10km 0:40:07 14.96 [km/h] 10:01 [min/km]
13 969 KORZENIEWSKI JAROSŁAW M 13 M 40-49 4 GORZÓW WIELKOPOLSKI 10km 0:40:17 14.89 [km/h] 10:02 [min/km]
14 956 STRZELECKI GRZEGORZ M 14 M 30-39 5 WROCŁAW GVT 10km 0:40:20 14.88 [km/h] 10:02 [min/km]
15 960 KUBIK MICHAŁ M 15 M 20-29 3 MIĘDZYRZECZ 10km 0:40:42 14.74 [km/h] 10:04 [min/km]
16 972 DOŁMAT EWARD M 16 M 50-59 1 GORZÓW 10km 0:41:04 14.61 [km/h] 10:06 [min/km]
17 927 PADUSZYŃSKA WIOLETTA K 1 K 30-39 GORZÓW WIELKOPOLSKI WIERZBICKI RUNNIN PROJECT 10km 0:41:11 14.57 [km/h] 10:07 [min/km]
18 958 TATAREWICZ KRZYSZTOF M 17 M 40-49 5 SŁOŃSK 10km 0:41:30 14.46 [km/h] 10:09 [min/km]
19 971 SARBAK GRZEGORZ M 18 M 0-19 1 MIĘDZYCHÓD MUKS JEDYNKA MIĘDZYCHÓD 10km 0:41:34 14.43 [km/h] 10:09 [min/km]
20 937 RACINOWSKA SYLWIA K 2 K 20-29 GRYFINO 10km 0:41:39 14.41 [km/h] 10:10 [min/km]
21 929 DUBIEL JANUSZ M 19 M 50-59 2 KRZYŻ WIELKOPOLSKI KB AKTYWNI KRZYŻ WLKP 10km 0:41:46 14.37 [km/h] 10:11 [min/km]
22 970 WUJDA MIROSŁAW M 20 M 40-49 6 DĘBNO ERNI RULEZ 10km 0:41:51 14.34 [km/h] 10:11 [min/km]
23 936 PLUTA GRZEGORZ M 21 M 50-59 3 NOWE CZARNOWO KB HERMES GRYFINO 10km 0:41:55 14.31 [km/h] 10:12 [min/km]
24 961 FORNALIK KAMIL M 22 M 0-19 2 MIĘDZYRZECZ 10km 0:42:00 14.29 [km/h] 10:12 [min/km]
25 949 KOLIS ZBIGNIEW M 23 M 50-59 4 MIĘDZYRZECZ KB PIAST MIĘDRZYRZECZ 10km 0:42:06 14.25 [km/h] 10:13 [min/km]
26 901 KASZUBOWSKI ZENON M 24 M 50-59 5 MALBORK ACTIVE MALBORK 10km 0:42:57 13.97 [km/h] 10:18 [min/km]
27 944 CEGIESLKI MATEUSZ M 25 M 20-29 4 LUBIKOWO 10km 0:43:29 13.80 [km/h] 10:21 [min/km]
28 908 CHĘTNIK ANDRZEJ M 26 M 40-49 7 PRZYTOCZNA ZJEDNOCZENI PRZYTOCZNA 10km 0:43:35 13.77 [km/h] 10:22 [min/km]
29 916 JĘDRASIAK ADRIAN M 27 M 30-39 6 ZIELONA GÓRA HURTOWNIASPORTOWA.NET 10km 0:43:49 13.69 [km/h] 10:23 [min/km]
30 933 ZAPAŁOWSKI KRZYSZTOF M 28 M 40-49 8 POLICE UKL ÓSEMKA POLICE 10km 0:43:57 13.65 [km/h] 10:24 [min/km]
31 925 HOJKA PIOTR M 29 M 30-39 7 GORZÓW WIELKOPOLSKI HOJKATEAM 10km 0:44:16 13.55 [km/h] 10:26 [min/km]
32 975 WOSZCZYK SEBASTIAN M 30 M 40-49 9 MIĘDZYRZECZ DZIADY OCR 10km 0:44:36 13.45 [km/h] 10:28 [min/km]
33 942 ADAMSKI KRZYSZTOF M 31 M 40-49 10 GORZÓW WLKP. 10km 0:45:26 13.21 [km/h] 10:33 [min/km]
34 922 BUKIEL KRZYSZTOF M 32 M 50-59 6 KOSTRZYN NAD ODRĄ 10km 0:45:31 13.18 [km/h] 10:33 [min/km]
35 902 WALENDZIAK ALICJA K 3 K 40-49 MALBORK RUNNERSI S7 BANINO 10km 0:45:40 13.14 [km/h] 10:34 [min/km]
36 903 JASKOT PIOTR M 33 M 50-59 7 GOŚCISZEWO 10km 0:45:45 13.11 [km/h] 10:35 [min/km]
37 959 MĄDRZAK BOGUMIŁ M 34 M 60-69 1 RUDNICA KOSMOS 78 RUDNICA 10km 0:45:47 13.11 [km/h] 10:35 [min/km]
38 950 PIASECKI PAWEŁ M 35 M 30-39 8 BOGDANIEC 10km 0:46:31 12.90 [km/h] 10:39 [min/km]
39 938 ZŁOTNIK PAWEŁ M 36 M 30-39 9 SZCZECIN AZS SZCZECIN 10km 0:46:32 12.89 [km/h] 10:39 [min/km]
40 910 BOROWSKA KAROLINA K 4 K 30-39 1 PUCICE PUSZCZYK BUKOWY 10km 0:46:35 12.88 [km/h] 10:40 [min/km]
41 955 CZUBKOWSKI MARIUSZ M 37 M 30-39 10 PRZYTOCZNA 10km 0:46:45 12.83 [km/h] 10:41 [min/km]
42 909 SZYMAŃSKA KATARZYNA K 5 K 30-39 2 SZCZECIN 10km 0:46:55 12.79 [km/h] 10:42 [min/km]
43 967 KOMPANOWSKI WOJCIECH M 38 M 0-19 3 LUBISZYN 10km 0:47:14 12.70 [km/h] 10:43 [min/km]
44 980 WOJTASIK KATARZYNA K 6 K 30-39 3 DĘBNO AZS SZCZECIN 10km 0:47:32 12.62 [km/h] 10:45 [min/km]
45 979 OSOWSKI TOMEK M 39 M 30-39 11 DĘBNO AZS SZCZECIN 10km 0:47:33 12.62 [km/h] 10:45 [min/km]
46 952 JANKOWIAK DANIEL M 40 M 40-49 11 MIĘDZYCHÓD 10km 0:48:21 12.41 [km/h] 10:50 [min/km]
47 939 BARAN PATRYK M 41 M 20-29 5 WITNICA ROZBIEGAJMY WITNICĘ 10km 0:48:39 12.33 [km/h] 10:52 [min/km]
48 931 RYBICKI JANUSZ M 42 M 60-69 2 POLICE 10km 0:48:49 12.29 [km/h] 10:53 [min/km]
49 923 KOWALEWSKI WALERY M 43 M 60-69 3 KOSTRZYN NAD ODRA BEZ KLUBU 10km 0:49:08 12.21 [km/h] 10:55 [min/km]
50 930 SOBCZYŃSKI PIOTR M 44 M 30-39 12 MIĘDZYCHÓD 10km 0:49:33 12.11 [km/h] 10:57 [min/km]
51 932 SIEDLECKI ADAM WIKTOR M 45 M 40-49 12 SZCZECIN PRZEBIEGLI PO PRZEJŚCIACH 10km 0:49:44 12.06 [km/h] 10:58 [min/km]
52 957 POZNAŃSKA LUCYNA POZNAŃSKA K 7 K 40-49 1 KOŁCZYN TEAM KOPEĆ/GOK KRZESZYCE 10km 0:49:59 12.00 [km/h] 10:00 [min/km]
53 951 MAZANA JUSTYNA K 8 K 40-49 2 MIĘDZYCHÓD BIEGACZE PMI 10km 0:50:34 11.87 [km/h] 10:03 [min/km]
54 926 SKRZYPKOWSKA AGNIESZKA K 9 K 30-39 4 ROZŁOGI 10km 0:50:37 11.85 [km/h] 10:04 [min/km]
55 947 OKONEK KAZIMIERZ M 46 M 60-69 4 GORZÓW WLKP. 10km 0:50:45 11.82 [km/h] 10:05 [min/km]
56 915 MARKIEWICZ MARIUSZ M 47 M 40-49 13 KARNIN 10km 0:50:51 11.80 [km/h] 10:05 [min/km]
57 978 KĄKOLEWSKI KAMIL M 48 M 30-39 13 MIĘDZYCHÓD 10km 0:50:59 11.77 [km/h] 10:06 [min/km]
58 914 FRĄCKOWIAK HANNA K 10 K 30-39 5 POLICE UKL ÓSEMKA POLICE 10km 0:51:00 11.76 [km/h] 10:06 [min/km]
59 963 FUDRO EDWARD M 49 M 60-69 5 POLICE 10km 0:51:23 11.68 [km/h] 10:08 [min/km]
60 941 WALKOWIAK DAMIAN M 50 M 20-29 6 PRZYTOCZNA 10km 0:52:05 11.52 [km/h] 10:13 [min/km]
61 924 HOJKA ALICJA K 11 K 30-39 6 GORZÓW WIELKOPOLSKI HOJKATEAM 10km 0:52:17 11.48 [km/h] 10:14 [min/km]
62 934 WARZYCH MAGDALENA K 12 K 40-49 3 RZEPIN 10km 0:52:29 11.43 [km/h] 10:15 [min/km]
63 921 WYDRA JÓZEF M 51 M 60-69 6 CYCHRY 10km 0:53:36 11.19 [km/h] 10:22 [min/km]
64 964 GLURA JÓZEF M 52 M 50-59 8 LUBISZYN 10km 0:54:13 11.07 [km/h] 10:25 [min/km]
65 976 STĘPNIAK GRZEGORZ M 53 M 40-49 14 SŁUBICE KOMENDA POLICJI SŁUBICE 10km 0:54:42 10.97 [km/h] 10:28 [min/km]
66 907 MLECZAK JACEK M 54 M 40-49 15 GORAJ MGR 10km 0:54:53 10.93 [km/h] 10:29 [min/km]
67 911 DYMEK URSZULA K 13 K 30-39 7 PĘCKOWO 10km 0:56:12 10.68 [km/h] 10:37 [min/km]
68 962 GANDECKA BEATA K 14 K 40-49 4 MIĘDZYRZECZ 10km 0:56:38 10.59 [km/h] 10:40 [min/km]
69 953 JANKOWIAK MARYSIA K 15 K 0-19 1 MIĘDZYCHÓD 10km 0:57:56 10.36 [km/h] 10:48 [min/km]
70 977 KRZYŻAŃSKI DANIEL M 55 M 30-39 14 WOLSZTYN 10km 0:59:21 10.11 [km/h] 10:56 [min/km]
71 912 KRYSTEK AGATA K 16 K 20-29 1 PIŁKA 10km 0:59:53 10.02 [km/h] 10:59 [min/km]
72 945 ROMAS CZESŁAW M 56 M 60-69 7 GORZÓW WLKP. 10km 1:00:29 9.92 [km/h] 10:03 [min/km]
73 968 MOLSKA MAŁGORZATA K 17 K 50-59 1 KŁODAWA 10km 1:03:28 9.45 [km/h] 10:21 [min/km]
74 928 BANASIAK MIRKA K 18 K 40-49 5 BIAŁCZ ROZBIEGAJMY WITNICE 10km 1:03:28 9.45 [km/h] 10:21 [min/km]
75 948 SKIBA EUGENIUSZ M 57 M 70+ 1 GORZÓW WLKP. 10km 1:10:46 8.48 [km/h] 10:05 [min/km]
76 965 GLURA IZABELA K 19 K 40-49 6 LUBISZYN 10km 1:14:21 8.07 [km/h] 10:26 [min/km]
77 946 OKONEK IZABELA K 20 K 40-49 7 GORZÓW WLKP. 10km 1:14:22 8.07 [km/h] 10:26 [min/km]
78 966 KOMPANOWSKI MARIUSZ M 58 M 40-49 16 LUBISZYN 10km 1:14:24 8.06 [km/h] 10:26 [min/km]
- 973 NOWACZYK PIOTR M - M 20-29 - GORZÓW WIELKOPOLSKI LPP GORZÓW WLKP. 10km 0:00:00 - [km/h] 10:00 [min/km]
- 974 WOJTYŚ PRZEMYSŁAW M - M 30-39 - GORZÓW WIELKOPOLSKI ENEA TEAM 10km 0:00:00 - [km/h] 10:00 [min/km]

WYNIKI DZIECI

Miejsce Open Numer Nazwisko Imię Płeć Miejsce płeć M / K Rok ur MIEJSCOWOŚĆ KLUB/SZKOŁA CZAS
1 99 UFNIAK OLA K 1 2015 PRZYTOCZNA PRZEDSZKOLE KASZTANOWA KRAINA PRZYTOCZNA 00:00:16
2 56 MUSIALSKA MILENA K 2 2015 WIERZBNO SP WIERZBNO 00:00:18
3 25 SZABAT HELENA K 3 2015 GORZÓW WIELKOPOLSKI 00:00:18
4 88 FUJAK ALA K 4 2015 PRZYTOCZNA PRZEDSZKOLE KASZTANOWA KRAINA PRZYTOCZNA 00:00:19
5 84 BASIŃSKA LENA K 5 2015 PRZYTOCZNA PRZEDSZKOLE KASZTANOWA KRAINA PRZYTOCZNA 00:00:21
6 1 SZEWCZYK MARTA K 6 2015 PRZYTOCZNA PRZEDSZKOLE KASZTANOWA KRAINA PRZYTOCZNA 00:00:22
7 31 GÓRA ANTONINA K 7 2015 PRZYTOCZNA PRZEDSZKOLE KASZTANOWA KRAINA PRZYTOCZNA 00:00:22
8 35 SEWRUK NATASZA K 8 2015 PRZYTOCZNA PRZEDSZKOLE KASZTANOWA KRAINA PRZYTOCZNA 00:00:28
9 93 KRZYŻELEWSKA ZUZIA K 9 2015 PRZYTOCZNA PRZEDSZKOLE KASZTANOWA KRAINA PRZYTOCZNA 00:00:31
10 36 SZYBISTA POLA K 10 2015 PRZYTOCZNA PRZEDSZKOLE KASZTANOWA KRAINA PRZYTOCZNA 00:00:32
10 34 PERKA OLIMPIA K 11 2015 PRZYTOCZNA PRZEDSZKOLE KASZTANOWA KRAINA PRZYTOCZNA 00:00:41
Miejsce Open Numer Nazwisko Imię Płeć Miejsce płeć M / K Rok ur MIEJSCOWOŚĆ KLUB/SZKOŁA CZAS
1 100 URBANEK WIKTOR M 1 2015 PRZYTOCZNA PRZEDSZKOLE KASZTANOWA KRAINA PRZYTOCZNA 00:00:20
2 26 DYSIEROWICZ FRANCISZEK M 2 2015 PRZYTOCZNA PRZEDSZKOLE KASZTANOWA KRAINA PRZYTOCZNA 00:00:23
3 54 KACZMAREK FRANCISZEK M 3 2014 WIERZBNO SP WIERZBNO 00:00:14
4 98 PUK ALEKS M 4 2015 PRZYTOCZNA PRZEDSZKOLE KASZTANOWA KRAINA PRZYTOCZNA 00:00:24
5 40 KMIECIAK FILIP M 5 2015 PRZYTOCZNA PRZEDSZKOLE KASZTANOWA KRAINA PRZYTOCZNA 00:00:25
6 95 MLECZAK FRANEK M 6 2015 PRZYTOCZNA PRZEDSZKOLE KASZTANOWA KRAINA PRZYTOCZNA 00:00:30
7 92 IGOR KRZYSTYNIAK M 7 2015 PRZYTOCZNA PRZEDSZKOLE KASZTANOWA KRAINA PRZYTOCZNA 00:00:31
8 42 MYSZKOWSKI FRANCISZEK M 8 2015 PRZYTOCZNA PRZEDSZKOLE KASZTANOWA KRAINA PRZYTOCZNA 00:00:38
9 37 TARASIEWICZ ANTONI M 9 2015 PRZYTOCZNA PRZEDSZKOLE KASZTANOWA KRAINA PRZYTOCZNA 00:00:43
Miejsce Open Numer Nazwisko Imię Płeć Miejsce płeć M / K Rok ur MIEJSCOWOŚĆ KLUB/SZKOŁA CZAS
1 71 HORDYNIEC KAJA K 1 2014 PRZYTOCZNA PRZEDSZKOLE KASZTANOWA KRAINA PRZYTOCZNA 00:00:15
2 72 KUCHARYK HANIA K 2 2014 PRZYTOCZNA PRZEDSZKOLE KASZTANOWA KRAINA PRZYTOCZNA 00:00:17
3 30 DUDEK ALICJA K 3 2014 PRZYTOCZNA PRZEDSZKOLE KASZTANOWA KRAINA PRZYTOCZNA 00:00:17
4 853 NOSEK ANNA K 4 2014 RZEPIN 00:00:17
5 854 URBANEK IGA K 5 2014 PRZYTOCZNA PRZEDSZKOLE KASZTANOWA KRAINA PRZYTOCZNA 00:00:23
Miejsce Open Numer Nazwisko Imię Płeć Miejsce płeć M / K Rok ur MIEJSCOWOŚĆ KLUB/SZKOŁA CZAS
1 798 KUCHARSKI KACPER M 1 2014 PRZYTOCZNA PRZEDSZKOLE KASZTANOWA KRAINA PRZYTOCZNA 00:00:12
2 23 ZAJSZ ADAM M 2 2014 PRZYTOCZNA PRZEDSZKOLE KASZTANOWA KRAINA PRZYTOCZNA 00:00:13
3 54 KACZMAREK FRANCISZEK M 3 2014 WIERZBNO SP WIERZBNO 00:00:14
4 55 MUSIALSKI FILIP M 4 2014 WIERZBNO SP WIERZBNO 00:00:17
5 73 MICHNO ANTONI M 5 2014 PRZYTOCZNA PRZEDSZKOLE KASZTANOWA KRAINA PRZYTOCZNA 00:00:17
6 21 CIESIELSKI PRZEMEK M 6 2014 PRZYTOCZNA PRZEDSZKOLE KASZTANOWA KRAINA PRZYTOCZNA 00:00:17
7 76 SZCZERBAK LEON M 7 2014 PRZYTOCZNA PRZEDSZKOLE KASZTANOWA KRAINA PRZYTOCZNA 00:00:18
8 75 PIETRZYK IGNACY M 8 2014 PRZYTOCZNA PRZEDSZKOLE KASZTANOWA KRAINA PRZYTOCZNA 00:00:20
9 793 BIAŁECKI ANDRZEJ M 9 2014 PRZYTOCZNA PRZEDSZKOLE KASZTANOWA KRAINA PRZYTOCZNA 00:00:43
10 800 MODRAS BRAJAN M 10 2014 PRZYTOCZNA PRZEDSZKOLE KASZTANOWA KRAINA PRZYTOCZNA 00:00:45
Miejsce Open Numer Nazwisko Imię Płeć Miejsce płeć M / K Rok ur MIEJSCOWOŚĆ KLUB/SZKOŁA CZAS
1 8 SZAFRAŃSKA NIKOLA K 1 2013 PRZYTOCZNA PRZEDSZKOLE KASZTANOWA KRAINA PRZYTOCZNA 00:00:11
2 10 WRÓBLEWSKA NATALIA K 2 2013 PRZYTOCZNA PRZEDSZKOLE KASZTANOWA KRAINA PRZYTOCZNA 00:00:12
3 32 HOJKA MAJA K 3 2013 GORZÓW WIELKOPOLSKI HOJKATEAM 00:00:12
4 12 PIOTROWSKA WANESSA K 4 2013 PRZYTOCZNA PRZEDSZKOLE KASZTANOWA KRAINA PRZYTOCZNA 00:00:13
5 792 KHOMECKA NIKOLA K 5 2013 PRZYTOCZNA - KRASNE DŁUSKO PRZEDSZKOLE 00:00:13
6 9 SZCZĘSNA-SIWIAK MAJA K 6 2013 PRZYTOCZNA PRZEDSZKOLE KASZTANOWA KRAINA PRZYTOCZNA 00:00:13
7 852 SZYMCZAK LENA K 7 2013 WIERZBNO SP WIERZBNO 00:00:13
8 851 STACHOWIAK ŻANETA K 8 2013 WIERZBNO SP WIERZBNO 00:00:14
9 57 GRUSZCZYŃSKA ANNA K 9 2013 WIERZBNO SP WIERZBNO 00:00:14
10 851 STACHOWIAK ŻANETA K 10 2013 WIERZBNO SP WIERZBNO 00:00:14
Miejsce Open Numer Nazwisko Imię Płeć Miejsce płeć M / K Rok ur MIEJSCOWOŚĆ KLUB/SZKOŁA CZAS
1 5 KRZYSTYNIAK KORNEL M 1 2013 PRZYTOCZNA PRZEDSZKOLE KASZTANOWA KRAINA PRZYTOCZNA 00:00:12
2 2 WOLF SZYMON M 2 2013 MIĘDZYCHÓD PRZEDSZKOLE NR4 KUBUŚ PUCHATEK MIĘDZYCHÓD 00:00:12
3 856 AMBROŻKO MICHAŁ M 3 2013 WIERZBNO SP WIERZBNO 00:00:17
4 11 KOBUS BARTOSZ M 4 2013 PRZYTOCZNA PRZEDSZKOLE KASZTANOWA KRAINA PRZYTOCZNA 00:00:17
5 4 AMBROŻKO SZYMON M 5 2013 PRZYTOCZNA PRZEDSZKOLE KASZTANOWA KRAINA PRZYTOCZNA 00:00:19
6 6 KRZYŻANIAK FILIP M 6 2013 PRZYTOCZNA PRZEDSZKOLE KASZTANOWA KRAINA PRZYTOCZNA 00:00:19
7 7 NALEWA ADAM M 7 2013 PRZYTOCZNA PRZEDSZKOLE KASZTANOWA KRAINA PRZYTOCZNA 00:00:20
Miejsce Open Numer Nazwisko Imię Płeć Miejsce płeć M / K Rok ur MIEJSCOWOŚĆ KLUB/SZKOŁA CZAS
1 82 WYRWA MILENA K 1 2012 PRZYTOCZNA PRZEDSZKOLE KASZTANOWA KRAINA PRZYTOCZNA 00:00:11
2 29 GÓRA HANNA K 2 2012 PRZYTOCZNA PRZEDSZKOLE KASZTANOWA KRAINA PRZYTOCZNA 00:00:11
3 20 FRĄCKOWIAK IGA K 3 2012 POLICE UKL ÓSEMKA POLICE 00:00:12
4 62 KMIECIAK MAJA K 4 2012 PRZYTOCZNA PRZEDSZKOLE KASZTANOWA KRAINA PRZYTOCZNA 00:00:12
5 81 WĄCHALSKA MARITA K 5 2012 PRZYTOCZNA PRZEDSZKOLE KASZTANOWA KRAINA PRZYTOCZNA 00:00:12
6 19 FILIPIAK KAROLINA K 6 2012 PRZYTOCZNA PRZEDSZKOLE KASZTANOWA KRAINA PRZYTOCZNA 00:00:12
7 86 HOSZKO HANNA K 7 2012 WIERZBNO SP WIERZBNO 00:00:12
8 59 TWARDOWSKA MAJA K 8 2012 GORZÓW WLKP. 00:00:14
9 61 KOKOSZANEK KLAUDIA K 9 2012 PRZYTOCZNA PRZEDSZKOLE KASZTANOWA KRAINA PRZYTOCZNA 00:00:16
10 27 CĄPA ALEKSANDRA K 10 2012 PRZYTOCZNA PRZEDSZKOLE KASZTANOWA KRAINA PRZYTOCZNA 00:00:17
11 83 ANTROPIK ANTONINA K 11 2012 GORZÓW WIELKOPOLSKI PRZEDSZKOLE TĘCZOWE 00:00:17
Miejsce Open Numer Nazwisko Imię Płeć Miejsce płeć M / K Rok ur MIEJSCOWOŚĆ KLUB/SZKOŁA CZAS
1 18 WACHOWIAK KUBA K 1 2012 BIELSKO 00:00:10
2 58 SKRZYPKOWSKI SZYMON M 2 2012 ROZŁOGI 00:00:10
3 60 KLAPCZYŃSKI JAKUB M 3 2012 PRZYTOCZNA 00:00:10
4 64 MAJCHRZAK SZYMON M 4 2012 PRZYTOCZNA PRZEDSZKOLE KASZTANOWA KRAINA PRZYTOCZNA 00:00:11
5 63 BUCHHOLTZ MICHAŁ M 5 2012 PRZYTOCZNA PRZEDSZKOLE KASZTANOWA KRAINA PRZYTOCZNA 00:00:11
6 44 WASYLKIEWICZ HUBERT M 6 2012 WIERZBNO SP WIERZBNO 00:00:11
7 43 HERCYG BARTOSZ M 7 2012 WIERZBNO SP WIERZBNO 00:00:11
8 79 HACAŚ MARIUSZ M 8 2012 PRZYTOCZNA PRZEDSZKOLE KASZTANOWA KRAINA PRZYTOCZNA 00:00:12
9 28 CZARNOTA KACPER M 9 2012 PRZYTOCZNA PRZEDSZKOLE KASZTANOWA KRAINA PRZYTOCZNA 00:00:12
10 45 TROJANEK MICHAŁ M 10 2012 WIERZBNO SP WIERZBNO 00:00:12
11 22 DRZEWIŃSKI FILIP M 11 2012 PRZYTOCZNA PRZEDSZKOLE KASZTANOWA KRAINA PRZYTOCZNA 00:00:12
12 48 JEZIOREK SZYMON M 12 2012 WIERZBNO SP WIERZBNO 00:00:12
13 47 KLEMT TOMASZ M 13 2012 WIERZBNO SP WIERZBNO 00:00:13
Miejsce Open Numer Nazwisko Imię Płeć Miejsce płeć M / K Rok ur MIEJSCOWOŚĆ KLUB/SZKOŁA CZAS
1 703 GĄBKA ROKSANA K 1 2011 MIĘDZYCHÓD 2X TEAM 00:00:17
2 3 WOLF ADRIANNA K 2 2011 MIĘDZYCHÓD SP2 MIĘDZYCHÓD 00:00:18
3 755 KRZYSTYNIAK ALEKSANDRA K 3 2011 PRZYTOCZNA SP PRZYTOCZNA 00:00:20
4 722 HOJKA BLANKA K 4 2011 GORZÓW WIELKOPOLSKI HOJKATEAM 00:00:20
5 713 KUĆMA ZOSIA K 5 2011 WIERZBNO SP WIERZBNO 00:00:20
6 748 BASIŃSKA NIKOLA K 6 2011 PRZYTOCZNA SP PRZYTOCZNA 00:00:20
7 743 OSTROWSKA MICHALINA K 7 2011 PRZYTOCZNA SP PRZYTOCZNA 00:00:21
8 735 RYCZEK ADA K 8 2011 PRZYTOCZNA SP PRZYTOCZNA 00:00:21
9 746 SZYBISTA JULIA K 9 2011 PRZYTOCZNA SP PRZYTOCZNA 00:00:21
10 744 RUDNIK KAROLINA K 10 2011 PRZYTOCZNA SP PRZYTOCZNA 00:00:21
11 701 KUPCZYK OKSANA K 11 2011 PUCICE PUSZCZYK BUKOWY 00:00:22
12 736 SALETIS NATASZA K 12 2011 PRZYTOCZNA SP PRZYTOCZNA 00:00:22
13 995 KRZYŻAŃSKA ALEKSANDRA K 13 2011 WOLSZTYN SP5 WOLSZTYN 00:00:23
14 704 SOBCZAK AMELIA K 14 2011 PRZYTOCZNA PRZEDSZKOLE KASZTANOWA KRAINA PRZYTOCZNA 00:00:23
15 756 MADEJ ADRIANNA K 15 2011 PRZYTOCZNA SP PRZYTOCZNA 00:00:24
16 757 MATUSIEWICZ ALEKSANDRA K 16 2011 PRZYTOCZNA SP PRZYTOCZNA 00:00:24
17 721 NIKOLA KRAMM M 17 2011 WIERZBNO SP WIERZBNO 00:00:24
18 753 KLUJ AGNIESZKA K 18 2011 PRZYTOCZNA SP PRZYTOCZNA 00:00:24
Miejsce Open Numer Nazwisko Imię Płeć Miejsce płeć M / K Rok ur MIEJSCOWOŚĆ KLUB/SZKOŁA CZAS
1 726 PERTEK SEWERYN M 1 2011 LUBOSZ SZKOŁA PODSTAWOWA W LUBOSZU 00:00:18
2 731 MIKOŁAJCZAK MIŁOSZ M 2 2011 PRZYTOCZNA SP PRZYTOCZNA 00:00:18
3 714 MAJCHRZAK MIKOŁAJ M 3 2011 WIERZBNO SP WIERZBNO 00:00:19
4 745 RZEŹNIK MIKOŁAJ M 4 2011 PRZYTOCZNA SP PRZYTOCZNA 00:00:20
5 720 MIKOŁAJ SZEWCZYK M 5 2011 WIERZBNO SP WIERZBNO 00:00:20
6 728 FRANKOWSKI MIKOŁAJ M 6 2011 PRZYTOCZNA SP PRZYTOCZNA 00:00:20
7 737 SEWRUK BORYS M 7 2011 PRZYTOCZNA SP PRZYTOCZNA 00:00:21
8 718 KACZMAREK WITOLD M 8 2011 WIERZBNO SP WIERZBNO 00:00:21
9 716 MUSIALSKI KACPER M 9 2011 WIERZBNO SP WIERZBNO 00:00:21
10 747 ŚRODECKI ALEKSANDER M 10 2011 PRZYTOCZNA SP PRZYTOCZNA 00:00:21
11 996 PIECHOWIAK SEBASTIAN M 11 2011 PRZYTOCZNA SP PRZYTOCZNA 00:00:22
12 715 MĘCFEL MIŁOSZ M 12 2011 WIERZBNO SP WIERZBNO 00:00:22
13 758 PERKA OLIWIER M 13 2011 PRZYTOCZNA SP PRZYTOCZNA 00:00:24
14 727 CIESIÓŁKA BARTOSZ M 14 2011 PRZYTOCZNA SP PRZYTOCZNA 00:00:24
Miejsce Open Numer Nazwisko Imię Płeć Miejsce płeć M / K Rok ur MIEJSCOWOŚĆ KLUB/SZKOŁA CZAS
1 723 GOLISZEWSKA HELENA K 1 2010 POLICE UKL ÓSEMKA POLICE 00:00:16
2 725 PIECHOTA ZUZANNA K 2 2010 POLICE UKL ÓSEMKA POLICE 00:00:17
3 784 KAPALA MARCELINA K 3 2010 TRZCIEL ZESPÓŁ EDUKACYJNY W TRZCIELU 00:00:17
4 709 HOSZKO JULIA K 4 2010 WIERZBNO SP WIERZBNO 00:00:19
5 710 MUSIALSKA NINA K 5 2010 WIERZBNO SP WIERZBNO 00:00:20
6 770 ŻAGIEL ADRIANNA K 6 2010 PRZYTOCZNA SP PRZYTOCZNA 00:00:20
7 761 GUŹNICZAK ZUZANNA K 7 2010 PRZYTOCZNA SP PRZYTOCZNA 00:00:20
8 780 OKUPSKA MALWINA K 8 2010 PRZYTOCZNA SP PRZYTOCZNA 00:00:20
9 771 MAJCHRZAK MARIA K 9 2010 PRZYTOCZNA SP PRZYTOCZNA 00:00:20
10 769 KISIEL WIKTORIA K 10 2010 PRZYTOCZNA SP PRZYTOCZNA 00:00:20
11 763 JANISZEWSKA PATRYCJA K 11 2010 PRZYTOCZNA SP PRZYTOCZNA 00:00:20
12 707 CZAPNIEWSKA JULIA K 12 2010 WIERZBNO SP WIERZBNO 00:00:22
13 783 WRONA MILENA K 13 2010 PRZYTOCZNA SP PRZYTOCZNA 00:00:22
14 785 DRZYMAŁA ZUZANNA K 14 2010 TRZCIEL ZESPÓŁ EDUKACYJNY W TRZCIELU 00:00:22
15 773 DAUKSZA LENA K 15 2010 PRZYTOCZNA SP PRZYTOCZNA 00:00:24
Miejsce Open Numer Nazwisko Imię Płeć Miejsce płeć M / K Rok ur MIEJSCOWOŚĆ KLUB/SZKOŁA CZAS
1 702 KUCHARYK ANTONI M 1 2010 PRZYTOCZNA PRZYTOCZNA 00:00:17
2 779 MEISE FILIP M 2 2010 PRZYTOCZNA SP PRZYTOCZNA 00:00:17
3 705 ADAMIAK WOJTEK M 3 2010 WIERZBNO SP WIERZBNO 00:00:18
4 708 HERCYGL HUBERT M 4 2010 WIERZBNO SP WIERZBNO 00:00:18
5 778 MAJCHRZAK OSKAR M 5 2010 PRZYTOCZNA SP PRZYTOCZNA 00:00:18
6 787 KUFEL KORNEL M 6 2010 PRZYTOCZNA SP PRZYTOCZNA 00:00:18
7 764 KLUJ SEWERYN M 7 2010 PRZYTOCZNA SP PRZYTOCZNA 00:00:19
8 762 HASSA WOJCIECH M 8 2010 PRZYTOCZNA SP PRZYTOCZNA 00:00:19
9 719 SZYMON FUJAK M 9 2010 WIERZBNO SP WIERZBNO 00:00:19
10 777 MADEJ PATRYK M 10 2010 PRZYTOCZNA SP PRZYTOCZNA 00:00:20
11 782 WINTER KACPER M 11 2010 PRZYTOCZNA SP PRZYTOCZNA 00:00:21
12 776 CZERWONKA ALEKSANDER M 12 2010 PRZYTOCZNA SP PRZYTOCZNA 00:00:21
13 712 SIKORSKI WOJCIECH M 13 2010 WIERZBNO SP WIERZBNO 00:00:21
14 733 MASIUKIEWICZ GRACJAN M 14 2010 ROKITKO SP PRZYTOCZNA 00:00:22
15 711 MISIEWICZ WIKTOR M 15 2010 WIERZBNO SP WIERZBNO 00:00:22
16 768 BOBER SZYMON M 16 2010 PRZYTOCZNA SP PRZYTOCZNA 00:00:22
17 734 PIECHOWIAK SEBASTIAN M 17 2010 PRZYTOCZNA SP PRZYTOCZNA 00:01:34
Miejsce Open Numer Nazwisko Imię Płeć Miejsce płeć M / K Rok ur MIEJSCOWOŚĆ KLUB/SZKOŁA CZAS
1 534 MARKIEWICZ HANNA K 1 2009 KARNIN 00:00:27
2 536 HANCZAREK ALEKSANDRA K 2 2009 GORZÓW WLKP. SZKOŁA PODSTAWOWA NR 13 GORZÓW WLKP. 00:00:27
3 568 JOKIEL JULIA K 3 2009 PRZYTOCZNA SP PRZYTOCZNA 00:00:28
4 549 PERTEK LAURA K 4 2009 LUBOSZ SZKOŁA PODSTAWOWA LUBOSZ 00:00:28
5 548 SKRZYPOWSKA JULIA K 5 2009 ŚWIEBODZIN 00:00:29
6 571 TRATWAL MARTYNA K 6 2009 PRZYTOCZNA SP PRZYTOCZNA 00:00:29
7 570 KULISZ KAMILA K 7 2009 PRZYTOCZNA SP PRZYTOCZNA 00:00:31
8 546 WARTOWNIK ZOFIA K 8 2009 SULĘCIN POSTOMIA SULĘCIN 00:00:31
9 566 BIGORAJ MAGDALENA K 9 2009 PRZYTOCZNA SP PRZYTOCZNA 00:00:32
10 562 WRÓBLEWICZ WIKTORIA K 10 2009 PRZYTOCZNA SP PRZYTOCZNA 00:00:32
11 532 CZERWONKA AMELIA K 11 2009 WIERZBNO SP WIERZBNO 00:00:32
12 533 KOŚCIELSKI DOMINIK M 12 2009 WIERZBNO SP WIERZBNO 00:00:38
Miejsce Open Numer Nazwisko Imię Płeć Miejsce płeć M / K Rok ur MIEJSCOWOŚĆ KLUB/SZKOŁA CZAS
1 564 BIAŁECKI DAMIAN M 1 2009 PRZYTOCZNA SP PRZYTOCZNA 00:00:26
2 550 HERDE TIL M 2 2009 00:00:26
3 533 KOŚCIELSKI DOMINIK M 3 2009 WIERZBNO SP WIERZBNO 00:00:38
4 545 ANTROPIK IGOR M 4 2009 GORZÓW WIELKOPOLSKI SP NR 6 00:00:28
5 560 PUK PAWEŁ M 5 2009 PRZYTOCZNA SP PRZYTOCZNA 00:00:28
6 502 JASKUŁA DAWID M 6 2009 PSZCZEW ZESPÓŁ SZKÓŁ W PSZCZEWIE 00:00:29
7 554 MASZOŃSKI TYMOTEUSZ M 7 2009 PRZYTOCZNA SP PRZYTOCZNA 00:00:29
8 563 ŻAGIEL JAKUB M 8 2009 PRZYTOCZNA SP PRZYTOCZNA 00:00:29
9 573 PASTUSZEK KONRAD M 9 2009 PRZYTOCZNA SP PRZYTOCZNA 00:00:29
10 555 PIÓRKO BARTOSZ M 10 2009 PRZYTOCZNA SP PRZYTOCZNA 00:00:33
Miejsce Open Numer Nazwisko Imię Płeć Miejsce płeć M / K Rok ur MIEJSCOWOŚĆ KLUB/SZKOŁA CZAS
1 542 PODBURACZYŃSKA OLIWIA M 1 2008 SULĘCIN SP1 SULĘCIN 00:00:25
2 519 SALEWSKA HANNA K 2 2008 GDYNIA LKS ZORZA GDYNIA/SP 13 GDYNIA 00:00:26
3 538 PIEKARSKA NATALIA K 3 2008 POLICE UKL ÓSEMKA POLICE 00:00:27
4 516 OKIŃCZYC KAROLINA K 4 2008 PSZCZEW ZESPÓŁ SZKÓŁ W PSZCZEWIE 00:00:28
5 527 GĄBKA DANUTA K 5 2008 WIERZBNO SP WIERZBNO 00:00:28
6 510 URBANEK MARTYNA K 6 2008 PSZCZEW ZESPÓŁ SZKÓŁ W PSZCZEWIE 00:00:30
7 588 PIÓRKO PAULA K 7 2008 PRZYTOCZNA SP PRZYTOCZNA 00:00:30
8 535 DYMEK MAŁGORZATA K 8 2008 PĘCKOWO SZKOŁA PODSTAWOWA IM JÓZEFA NOJI 00:00:30
9 576 BASIŃSKA WIKTORIA K 9 2008 PRZYTOCZNA SP PRZYTOCZNA 00:00:30
10 579 RYCZEK JULIA K 10 2008 PRZYTOCZNA SP PRZYTOCZNA 00:00:31
11 537 MACAŁA ZUZANNA K 11 2008 POLICE UKL ÓSEMKA POLICE 00:00:31
12 544 STASIUKIEWICZ GRACJA K 12 2008 SULĘCIN SP1 SULĘCIN / POSTOMIA 00:00:31
13 529 MĘDYKOWSKA MAJA K 13 2008 WIERZBNO SP WIERZBNO 00:00:32
Miejsce Open Numer Nazwisko Imię Płeć Miejsce płeć M / K Rok ur MIEJSCOWOŚĆ KLUB/SZKOŁA CZAS
1 583 JUDKOWIAK ERYK M 1 2008 PRZYTOCZNA SP PRZYTOCZNA 00:00:25
2 531 KOŚCIELSKI WIKTOR M 2 2008 WIERZBNO SP WIERZBNO 00:00:27
3 574 MEISE KACPER M 3 2008 PRZYTOCZNA SP PRZYTOCZNA 00:00:27
4 589 MATUSIAK ALAN M 4 2008 PRZYTOCZNA SP PRZYTOCZNA 00:00:28
5 528 FRĄCKIEWICZ RADOSŁAW M 5 2008 WIERZBNO SP WIERZBNO 00:00:28
6 501 LEŚNIOWOLSKI MACIEJ M 6 2008 PSZCZEW ZESPÓŁ SZKÓŁ W PSZCZEWIE 00:00:28
7 577 GROCHOLEWSKI KACPER M 7 2008 PRZYTOCZNA SP PRZYTOCZNA 00:00:28
8 517 OPALA PIOTR M 8 2008 PSZCZEW ZESPÓŁ SZKÓŁ W PSZCZEWIE 00:00:29
9 511 NOWAKOWSKI DOMINIK M 9 2008 PSZCZEW ZESPÓŁ SZKÓŁ W PSZCZEWIE 00:00:29
10 507 TANKIELUN ADAM M 10 2008 PSZCZEW ZESPÓŁ SZKÓŁ W PSZCZEWIE 00:00:29
11 584 KUCHARSKI MICHAŁ M 11 2008 PRZYTOCZNA SP PRZYTOCZNA 00:00:30
12 530 KUĆMA OLIWIER M 12 2008 WIERZBNO SP WIERZBNO 00:00:30
13 518 ZAJĄC MACIEJ M 13 2008 SULĘCIN SPZ SULĘCIN POSTOMIA 00:00:31
14 526 KAROLAK WITOLD M 14 2008 WIERZBNO SP WIERZBNO 00:00:31
15 525 OKIŃCZYC PATRYK M 15 2008 WIERZBNO SP WIERZBNO 00:00:31
16 786 DRZEWIŃSKI PATRYK M 16 2008 PRZYTOCZNA 0 00:00:32
17 580 SZUDRA BARTŁOMIEJ M 17 2008 PRZYTOCZNA SP PRZYTOCZNA 00:00:32
18 578 KRUGIOŁKA MIŁOSZ M 18 2008 PRZYTOCZNA SP PRZYTOCZNA 00:00:34
Miejsce Open Numer Nazwisko Imię Płeć Miejsce płeć M / K Rok ur MIEJSCOWOŚĆ KLUB/SZKOŁA CZAS
1 541 RUDNIK JULIA K 1 2007 POLICE UKL ÓSEMKA POLICE 00:00:56
2 504 REMBACZ ALEKSANDRA K 2 2007 PSZCZEW ZESPÓŁ SZKÓŁ W PSZCZEWIE 00:00:56
3 520 REN MAŁDORZATA K 3 2007 WIERZBNO SP WIERZBNO 00:00:59
4 508 SZEWCZUK IDA K 4 2007 PSZCZEW ZESPÓŁ SZKÓŁ W PSZCZEWIE 00:01:00
5 509 JASKUŁA JAGODA K 5 2007 PSZCZEW ZESPÓŁ SZKÓŁ W PSZCZEWIE 00:01:00
6 515 GÓRNA NIKOLA K 6 2007 PSZCZEW ZESPÓŁ SZKÓŁ W PSZCZEWIE 00:01:08
7 593 DUDEK MAJA K 7 2007 PRZYTOCZNA SP PRZYTOCZNA 00:01:08
8 895 PIÓRKO DOMINIKA K 8 2007 PRZYTOCZNA SP PRZYTOCZNA 00:01:08
9 503 MOLIK OLIWIA K 9 2007 PSZCZEW ZESPÓŁ SZKÓŁ W PSZCZEWIE 00:01:10
10 597 POŚLEDNIA JULIA K 10 2007 PRZYTOCZNA SP PRZYTOCZNA 00:01:12
11 889 KLUJ MAJA K 11 2007 PRZYTOCZNA SP PRZYTOCZNA 00:01:13
12 540 SIEDLECKA MAGDALENA K 12 2007 SZCZECIN UKL ÓSEMKA POLICE 00:01:14
Miejsce Open Numer Nazwisko Imię Płeć Miejsce płeć M / K Rok ur MIEJSCOWOŚĆ KLUB/SZKOŁA CZAS
1 514 JASKUŁA MATEUSZ M 1 2007 PSZCZEW ZESPÓŁ SZKÓŁ W PSZCZEWIE 00:00:52
2 598 SŁAWIK MATEUSZ M 2 2007 PRZYTOCZNA SP PRZYTOCZNA 00:00:52
3 595 MAJCHRZAK MIŁOSZ M 3 2007 PRZYTOCZNA SP PRZYTOCZNA 00:00:54
4 539 ZAPAŁOWSKI FILIP M 4 2007 POLICE UKL ÓSEMKA POLICE 00:00:55
5 506 SROKA MACIEJ M 5 2007 PSZCZEW ZESPÓŁ SZKÓŁ W PSZCZEWIE 00:00:56
6 522 KOŚCIELSKI KACPER M 6 2007 WIERZBNO SP WIERZBNO 00:00:56
7 524 URBANIAK PATRYK M 7 2007 WIERZBNO SP WIERZBNO 00:00:59
8 513 JARMUŻYŃSKI GRACJAN M 8 2007 PSZCZEW ZESPÓŁ SZKÓŁ W PSZCZEWIE 00:01:01
9 900 ŚWIĘCICKI ŁUKASZ M 9 2007 PRZYTOCZNA SP PRZYTOCZNA 00:01:02
10 512 NOWAKOWSKI DAWID M 10 2007 PSZCZEW ZESPÓŁ SZKÓŁ W PSZCZEWIE 00:01:03
11 505 KULECZKA MICHAŁ M 11 2007 PSZCZEW ZESPÓŁ SZKÓŁ W PSZCZEWIE 00:01:03
12 547 NOWAK ARTUR M 12 2007 SULĘCIN POSTOMIA SULĘCIN 00:01:03
13 523 KOŚCIELSKI ŁUKASZ M 13 2007 WIERZBNO SP WIERZBNO 00:01:05
14 897 KULIG FILIP M 14 2007 PRZYTOCZNA SP PRZYTOCZNA 00:01:06
15 898 OSZMIAN BENIAMIN M 15 2007 PRZYTOCZNA SP PRZYTOCZNA 00:01:12
16 893 PIETRZAK MACIEJ M 16 2007 PRZYTOCZNA SP PRZYTOCZNA 00:01:22
17 592 BUCHHOLTZ MATEUSZ M 17 2007 PRZYTOCZNA SP PRZYTOCZNA 00:01:34
18 894 KOSZKO WITALIUSZ M 18 2007 PRZYTOCZNA SP PRZYTOCZNA 00:01:34
Miejsce Open Numer Nazwisko Imię Płeć Miejsce płeć M / K Rok ur MIEJSCOWOŚĆ KLUB/SZKOŁA CZAS
1 836 ŁUKASZEWICZ LENA K 1 2006 SULĘCIN POSTOMIA SULĘCIN 00:01:18
2 833 CZAJKOWSKA WERONIKA K 2 2006 POLICE UKL ÓSEMKA POLICE 00:01:19
3 822 KALEMBA KAROLINA K 3 2006 WIERZBNO SP WIERZBNO 00:01:20
4 807 FRYZA OLIWIA K 4 2006 PSZCZEW ZESPÓŁ SZKÓŁ W PSZCZEWIE 00:01:22
5 841 GOSPODAREK WERONIKA K 5 2006 PRZYTOCZNA SP PRZYTOCZNA 00:01:25
6 845 CHAJDUK MAGDALENA K 6 2006 PRZYTOCZNA SP PRZYTOCZNA 00:01:26
7 830 MARKIEWICZ LAURA K 7 2006 KARNIN 00:01:29
8 866 RACZYŃSKA IGA K 8 2006 PRZYTOCZNA SP PRZYTOCZNA 00:01:36
9 826 KULISZ JOANNA K 9 2006 WIERZBNO SP WIERZBNO 00:01:38
10 812 RACZEK ALEKSANDRA K 10 2006 PSZCZEW ZESPÓŁ SZKÓŁ W PSZCZEWIE 00:01:41
11 813 FIEDLER WERONIKA K 11 2006 PSZCZEW ZESPÓŁ SZKÓŁ W PSZCZEWIE 00:01:42
Miejsce Open Numer Nazwisko Imię Płeć Miejsce płeć M / K Rok ur MIEJSCOWOŚĆ KLUB/SZKOŁA CZAS
1 814 DĄBROWSKI KEWIN M 1 2006 PSZCZEW ZESPÓŁ SZKÓŁ W PSZCZEWIE 00:01:17
2 842 MASZOŃSKI SZYMON M 2 2006 PRZYTOCZNA SP PRZYTOCZNA 00:01:17
3 846 CIESIÓŁKA JAKUB M 3 2006 PRZYTOCZNA SP PRZYTOCZNA 00:01:17
4 835 GLAPA PIOTR M 4 2006 SULĘCIN POSTOMIA SULĘCIN 00:01:18
5 840 ŻMIJEWSKI WIKTOR M 5 2006 SKWIERZYNA 00:01:22
6 828 GRABOWSKI ERNEST M 6 2006 WIERZBNO SP WIERZBNO 00:01:26
7 827 KOŚCIELSKI JAKUB M 7 2006 WIERZBNO SP WIERZBNO 00:01:27
8 823 URBAŃSKI MIŁOSZ M 8 2006 WIERZBNO SP WIERZBNO 00:01:29
9 825 MUSIALSKI MACIEJ M 9 2006 WIERZBNO SP WIERZBNO 00:01:31
10 803 MATUSIEWICZ DOMINIK M 10 2006 PRZYTOCZNA SP PRZYTOCZNA 00:01:31
11 861 ZBOROWSKI JAKUB M 11 2006 PRZYTOCZNA SP PRZYTOCZNA 00:01:31
12 808 KISIEL KAMIL M 12 2006 PSZCZEW ZESPÓŁ SZKÓŁ W PSZCZEWIE 00:01:36
13 834 SOBCZAK DOMINIK M 13 2006 PRZYTOCZNA SP PRZYTOCZNA 00:01:40
14 857 ADAMSKI SZYMON M 14 2006 GORZÓW WIELKOPOLSKI SP10 GORZÓW 00:01:41
15 847 CZERWONKA BARTOSZ M 15 2006 PRZYTOCZNA SP PRZYTOCZNA 00:01:49
Miejsce Open Numer Nazwisko Imię Płeć Miejsce płeć M / K Rok ur MIEJSCOWOŚĆ KLUB/SZKOŁA CZAS
1 832 NOWAK AGNIESZKA K 1 2005 SULĘCIN POSTOMIA SULĘCIN 00:01:08
2 875 PAWLIK MARTYNA K 2 2005 PRZYTOCZNA SP PRZYTOCZNA 00:01:12
3 752 GIBUŁA ANNA K 3 2005 PRZYTOCZNA 0 00:01:21
4 817 STRZYMIŃSKA EMILA K 4 2005 GORZÓW WILEKOPOLSKI SZKOŁA PODSTAWOWA NR 2 Z ODDZIAŁAMI SPORTOWYMI IM. SZARYCH SZEREGÓW GORZÓW WIELKOPOLSKI 00:01:22
Miejsce Open Numer Nazwisko Imię Płeć Miejsce płeć M / K Rok ur MIEJSCOWOŚĆ KLUB/SZKOŁA CZAS
1 871 BIAŁECKI PIOTR M 1 2005 PRZYTOCZNA SP PRZYTOCZNA 00:01:09
2 805 KIERZEK WIKTOR M 2 2005 PSZCZEW ZESPÓŁ SZKÓŁ W PSZCZEWIE 00:01:10
3 873 KRÓWKA KLAUDIUSZ M 3 2005 PRZYTOCZNA SP PRZYTOCZNA 00:01:12
4 872 NOWAKOWSKI WOJCIECH M 4 2005 PRZYTOCZNA SP PRZYTOCZNA 00:01:16
5 870 FURDYNA FILIP M 5 2005 PRZYTOCZNA SP PRZYTOCZNA 00:01:20
6 806 OKIŃCZYC KACPER M 6 2005 PSZCZEW ZESPÓŁ SZKÓŁ W PSZCZEWIE 00:01:22
7 880 PIOTROWSKI BARTOSZ M 7 2005 PRZYTOCZNA SP PRZYTOCZNA 00:01:23
8 811 DYLEWSKI ŁUKASZ M 8 2005 PSZCZEW ZESPÓŁ SZKÓŁ W PSZCZEWIE 00:01:30
9 821 MISIEWICZ ALEKS M 9 2005 WIERZBNO SP WIERZBNO 00:01:39
10 869 WOŹNIAK KACPER M 10 2005 PRZYTOCZNA SP PRZYTOCZNA 00:01:54
Miejsce Open Numer Nazwisko Imię Płeć Miejsce płeć M / K Rok ur MIEJSCOWOŚĆ KLUB/SZKOŁA CZAS
1 839 WIT MICHAŁ M 1 2004 SULĘCIN POSTOMIA SULĘCIN 00:01:03
2 876 MATUSIK ARKADIUSZ M 2 2004 PRZYTOCZNA SP PRZYTOCZNA 00:01:08
3 877 MIKOŁAJCZAK JAKUB M 3 2004 PRZYTOCZNA SP PRZYTOCZNA 00:01:08
4 804 ŁUKASZYK MATEUSZ M 4 2004 PSZCZEW ZESPÓŁ SZKÓŁ W PSZCZEWIE 00:01:09
5 879 KRÓWKA JAKUB M 5 2004 PRZYTOCZNA SP PRZYTOCZNA 00:01:12
Miejsce Open Numer Nazwisko Imię Płeć Miejsce płeć M / K Rok ur MIEJSCOWOŚĆ KLUB/SZKOŁA CZAS
1 838 DOMINICZAK JOANNA K 1 2004 SULĘCIN POSTOMIA SULĘCIN 00:01:23
2 819 SZARATA SANDRA K 2 2004 WIERZBNO SP WIERZBNO 00:01:25
Miejsce Open Numer Nazwisko Imię Płeć Miejsce płeć M / K Rok ur MIEJSCOWOŚĆ KLUB/SZKOŁA CZAS
1 883 ZAPOLSKA PAULINA K 1 2003 PRZYTOCZNA SP PRZYTOCZNA 00:01:20
2 809 SPIRALSKA EWELINA K 2 2003 PSZCZEW ZESPÓŁ SZKÓŁ W PSZCZEWIE 00:01:21
3 882 DOBKIEWICZ KAROLINA K 3 2003 PRZYTOCZNA SP PRZYTOCZNA 00:01:22
4 998 RACZYŃSKA OKTAWIA K 4 2003 PRZYTOCZNA SP PRZYTOCZNA 00:01:23
5 858 ADAMKIEWICZ WIKTORIA K 5 2003 PRZYTOCZNA SP PRZYTOCZNA 00:01:33
6 887 SPYCHAŁA WIKTORIA K 6 2003 PRZYTOCZNA SP PRZYTOCZNA 00:01:34
Miejsce Open Numer Nazwisko Imię Płeć Miejsce płeć M / K Rok ur MIEJSCOWOŚĆ KLUB/SZKOŁA CZAS
1 815 NOWICKI ERYK M 1 2003 PSZCZEW ZESPÓŁ SZKÓŁ W PSZCZEWIE 00:01:00
2 831 NOWAK DAWID M 2 2003 SULĘCIN POSTOMIA SULĘCIN 00:01:02
3 810 WYSOCZAŃSKI PAWEŁ M 3 2003 PSZCZEW ZESPÓŁ SZKÓŁ W PSZCZEWIE 00:01:03
4 837 SKARBIEŻ JAKUB M 4 2003 SULĘCIN POSTOMIA SULĘCIN 00:01:04
5 881 MAJOREK JAKUB M 5 2003 PRZYTOCZNA SP PRZYTOCZNA 00:01:04
6 802 FIEDLER KACPER M 6 2003 PSZCZEW ZESPÓŁ SZKÓŁ W PSZCZEWIE 00:01:05
7 801 GURLIG PIOTR M 7 2003 PSZCZEW ZESPÓŁ SZKÓŁ W PSZCZEWIE 00:01:07
8 888 KALEMBA KAMIL M 8 2003 PRZYTOCZNA SP PRZYTOCZNA 00:01:09
Miejsce Open Numer Nazwisko Imię Płeć Miejsce płeć M / K Rok ur MIEJSCOWOŚĆ KLUB/SZKOŁA CZAS
1 17 WASILEWSKI JAN M 1 1991 ROKITNO 38 DPS ROKITNO 00:00:35
2 15 PUZIAK SYLWESTER M 2 1993 ROKITNO 38 DPS ROKITNO 00:00:38
3 14 LIS ŁUKASZ M 3 1990 ROKITNO 38 DPS ROKITNO 00:00:41
4 13 KOZA TADEUSZ M 4 1987 ROKITNO 38 DPS ROKITNO 00:00:42
5 16 RECLAF DAMIAN M 5 1986 ROKITNO 38 DPS ROKITNO 00:00:43

Komunikat. Wykorzystujemy pliki cookies, aby nasz serwis lepiej spełniał Państwa oczekiwania. Można zablokować zapisywanie cookies, zmieniając ustawienia przeglądarki. [x] __ZAMKNIJ